createdAt,value
2017-12-25T00:00:00.226Z,10.50
2017-12-25T00:00:35.641Z,11.70
2017-12-25T00:01:10.860Z,11.80
2017-12-25T00:01:46.175Z,11.90
2017-12-25T00:02:21.247Z,12.60
2017-12-25T00:02:56.740Z,12.00
2017-12-25T00:03:32.480Z,12.10
2017-12-25T00:04:07.969Z,12.10
2017-12-25T00:04:43.174Z,12.50
2017-12-25T00:05:18.361Z,12.80
2017-12-25T00:05:53.669Z,13.20
2017-12-25T00:06:28.847Z,13.00
2017-12-25T00:07:04.164Z,13.00
2017-12-25T00:07:39.364Z,13.70
2017-12-25T00:08:14.548Z,13.90
2017-12-25T00:08:49.886Z,13.50
2017-12-25T00:09:25.166Z,13.40
2017-12-25T00:10:00.378Z,13.40
2017-12-25T00:10:36.357Z,13.10
2017-12-25T00:11:11.466Z,13.10
2017-12-25T00:11:46.953Z,12.30
2017-12-25T00:12:22.560Z,12.70
2017-12-25T00:12:57.871Z,12.60
2017-12-25T00:13:32.954Z,12.70
2017-12-25T00:14:08.117Z,12.50
2017-12-25T00:14:43.303Z,12.10
2017-12-25T00:15:18.415Z,11.90
2017-12-25T00:15:53.592Z,12.20
2017-12-25T00:16:29.001Z,11.70
2017-12-25T00:17:03.984Z,11.40
2017-12-25T00:17:39.503Z,12.30
2017-12-25T00:18:14.821Z,11.50
2017-12-25T00:18:50.004Z,11.30
2017-12-25T00:19:25.339Z,11.20
2017-12-25T00:20:00.919Z,11.10
2017-12-25T00:20:36.231Z,10.50
2017-12-25T00:21:11.416Z,10.70
2017-12-25T00:21:47.034Z,11.40
2017-12-25T00:22:22.825Z,10.70
2017-12-25T00:22:58.130Z,10.80
2017-12-25T00:23:33.324Z,10.20
2017-12-25T00:24:08.535Z,10.50
2017-12-25T00:24:44.085Z,9.80
2017-12-25T00:25:19.370Z,9.40
2017-12-25T00:25:54.673Z,9.90
2017-12-25T00:26:29.861Z,10.30
2017-12-25T00:27:05.375Z,9.70
2017-12-25T00:27:40.364Z,10.10
2017-12-25T00:28:15.864Z,10.00
2017-12-25T00:28:50.846Z,9.30
2017-12-25T00:29:25.955Z,9.20
2017-12-25T00:30:01.398Z,9.30
2017-12-25T00:30:37.382Z,9.40
2017-12-25T00:31:12.987Z,9.30
2017-12-25T00:31:48.372Z,8.70
2017-12-25T00:32:23.875Z,9.30
2017-12-25T00:32:59.175Z,8.80
2017-12-25T00:33:34.584Z,8.80
2017-12-25T00:34:09.762Z,8.80
2017-12-25T00:34:44.772Z,8.40
2017-12-25T00:35:20.607Z,8.40
2017-12-25T00:35:55.793Z,8.40
2017-12-25T00:36:31.709Z,8.20
2017-12-25T00:37:06.894Z,7.70
2017-12-25T00:37:42.298Z,7.00
2017-12-25T00:38:17.580Z,6.60
2017-12-25T00:38:52.892Z,6.60
2017-12-25T00:39:28.166Z,7.10
2017-12-25T00:40:03.668Z,7.20
2017-12-25T00:40:39.312Z,6.40
2017-12-25T00:41:14.593Z,6.50
2017-12-25T00:41:49.603Z,6.80
2017-12-25T00:42:25.280Z,6.70
2017-12-25T00:43:00.696Z,6.40
2017-12-25T00:43:36.072Z,6.20
2017-12-25T00:44:11.788Z,6.40
2017-12-25T00:44:47.168Z,7.10
2017-12-25T00:45:25.684Z,6.70
2017-12-25T00:46:02.630Z,6.90
2017-12-25T00:46:37.912Z,6.00
2017-12-25T00:47:13.423Z,6.20
2017-12-25T00:47:48.705Z,6.50
2017-12-25T00:48:23.818Z,6.20
2017-12-25T00:48:59.396Z,6.40
2017-12-25T00:49:34.610Z,6.10
2017-12-25T00:50:09.787Z,6.60
2017-12-25T00:50:45.486Z,7.00
2017-12-25T00:51:21.024Z,6.40
2017-12-25T00:51:56.606Z,6.00
2017-12-25T00:52:31.713Z,6.00
2017-12-25T00:53:07.302Z,6.10
2017-12-25T00:53:43.025Z,6.50
2017-12-25T00:54:18.405Z,6.60
2017-12-25T00:54:53.917Z,5.80
2017-12-25T00:55:29.206Z,6.50
2017-12-25T00:56:04.610Z,6.50
2017-12-25T00:56:40.164Z,6.30
2017-12-25T00:57:15.340Z,6.70
2017-12-25T00:57:50.655Z,6.50
2017-12-25T00:58:25.829Z,6.10
2017-12-25T00:59:01.341Z,6.30
2017-12-25T00:59:36.527Z,6.10
2017-12-25T01:00:12.242Z,5.60
2017-12-25T01:00:47.823Z,5.80
2017-12-25T01:01:23.128Z,5.80
2017-12-25T01:01:58.641Z,6.00
2017-12-25T01:02:34.255Z,6.60
2017-12-25T01:03:09.465Z,5.80
2017-12-25T01:03:44.854Z,5.30
2017-12-25T01:04:20.072Z,6.30
2017-12-25T01:04:55.450Z,6.20
2017-12-25T01:05:30.549Z,5.80
2017-12-25T01:06:06.036Z,6.40
2017-12-25T01:06:44.444Z,5.70
2017-12-25T01:07:20.184Z,6.00
2017-12-25T01:07:58.870Z,6.30
2017-12-25T01:08:34.581Z,6.10
2017-12-25T01:09:09.879Z,6.00
2017-12-25T01:09:45.172Z,6.50
2017-12-25T01:10:20.659Z,6.00
2017-12-25T01:10:55.967Z,5.90
2017-12-25T01:11:31.858Z,5.90
2017-12-25T01:12:07.166Z,5.80
2017-12-25T01:12:42.507Z,5.90
2017-12-25T01:13:17.993Z,5.60
2017-12-25T01:13:54.406Z,6.00
2017-12-25T01:14:29.390Z,5.60
2017-12-25T01:15:04.899Z,5.10
2017-12-25T01:15:40.283Z,5.30
2017-12-25T01:16:15.389Z,4.90
2017-12-25T01:16:54.373Z,5.50
2017-12-25T01:17:29.695Z,5.60
2017-12-25T01:18:05.334Z,5.30
2017-12-25T01:18:40.824Z,5.50
2017-12-25T01:19:17.234Z,5.20
2017-12-25T01:19:52.616Z,4.60
2017-12-25T01:20:27.926Z,4.70
2017-12-25T01:21:03.101Z,4.90
2017-12-25T01:21:40.808Z,4.90
2017-12-25T01:22:17.821Z,4.90
2017-12-25T01:22:54.304Z,5.10
2017-12-25T01:23:29.254Z,5.20
2017-12-25T01:24:04.637Z,5.50
2017-12-25T01:24:40.055Z,5.60
2017-12-25T01:25:15.436Z,5.50
2017-12-25T01:25:50.449Z,5.00
2017-12-25T01:26:27.045Z,4.90
2017-12-25T01:27:02.654Z,5.50
2017-12-25T01:27:39.337Z,5.40
2017-12-25T01:28:14.556Z,5.10
2017-12-25T01:28:50.991Z,5.20
2017-12-25T01:29:26.974Z,5.30
2017-12-25T01:30:02.279Z,5.10
2017-12-25T01:30:38.761Z,4.90
2017-12-25T01:31:14.377Z,5.20
2017-12-25T01:31:49.857Z,5.20
2017-12-25T01:32:25.066Z,5.10
2017-12-25T01:33:00.540Z,4.60
2017-12-25T01:33:35.948Z,4.90
2017-12-25T01:34:11.392Z,5.70
2017-12-25T01:34:48.465Z,5.60
2017-12-25T01:35:23.670Z,5.10
2017-12-25T01:35:58.855Z,5.00
2017-12-25T01:36:34.161Z,5.30
2017-12-25T01:37:09.455Z,5.40
2017-12-25T01:37:44.759Z,5.40
2017-12-25T01:38:20.044Z,5.30
2017-12-25T01:38:55.447Z,5.10
2017-12-25T01:39:30.993Z,5.70
2017-12-25T01:40:06.483Z,5.80
2017-12-25T01:40:44.391Z,5.60
2017-12-25T01:41:19.978Z,6.20
2017-12-25T01:41:58.797Z,6.20
2017-12-25T01:42:33.886Z,6.20
2017-12-25T01:43:09.193Z,6.30
2017-12-25T01:43:44.388Z,6.30
2017-12-25T01:44:20.118Z,6.40
2017-12-25T01:44:55.460Z,5.60
2017-12-25T01:45:30.649Z,6.00
2017-12-25T01:46:05.952Z,6.20
2017-12-25T01:46:41.147Z,6.40
2017-12-25T01:47:16.659Z,6.10
2017-12-25T01:47:56.237Z,6.10
2017-12-25T01:48:31.545Z,6.10
2017-12-25T01:49:06.958Z,6.10
2017-12-25T01:49:42.342Z,6.10
2017-12-25T01:50:20.986Z,6.70
2017-12-25T01:50:56.373Z,7.10
2017-12-25T01:51:31.678Z,7.10
2017-12-25T01:52:06.962Z,7.20
2017-12-25T01:52:43.270Z,6.90
2017-12-25T01:53:18.451Z,7.00
2017-12-25T01:53:53.662Z,7.20
2017-12-25T01:54:28.560Z,7.40
2017-12-25T01:55:03.978Z,7.40
2017-12-25T01:55:41.497Z,7.30
2017-12-25T01:56:16.901Z,6.90
2017-12-25T01:56:53.609Z,6.80
2017-12-25T01:57:28.694Z,7.10
2017-12-25T01:58:04.409Z,7.10
2017-12-25T01:58:39.889Z,7.10
2017-12-25T01:59:15.005Z,7.30
2017-12-25T01:59:50.290Z,6.80
2017-12-25T02:00:25.501Z,7.50
2017-12-25T02:01:00.923Z,7.30
2017-12-25T02:01:36.635Z,7.10
2017-12-25T02:02:12.360Z,7.40
2017-12-25T02:02:47.541Z,7.70
2017-12-25T02:03:22.754Z,7.50
2017-12-25T02:03:57.740Z,7.20
2017-12-25T02:04:33.253Z,7.20
2017-12-25T02:05:08.538Z,7.20
2017-12-25T02:05:46.651Z,7.50
2017-12-25T02:06:22.258Z,7.30
2017-12-25T02:06:57.563Z,7.60
2017-12-25T02:07:33.181Z,7.80
2017-12-25T02:08:08.468Z,7.50
2017-12-25T02:08:43.873Z,7.10
2017-12-25T02:09:19.062Z,7.10
2017-12-25T02:09:54.068Z,7.30
2017-12-25T02:10:29.150Z,8.20
2017-12-25T02:11:04.357Z,8.20
2017-12-25T02:11:39.582Z,7.30
2017-12-25T02:12:14.883Z,6.70
2017-12-25T02:12:50.493Z,6.80
2017-12-25T02:13:25.471Z,6.50
2017-12-25T02:14:00.876Z,6.80
2017-12-25T02:14:36.370Z,6.60
2017-12-25T02:15:11.682Z,5.90
2017-12-25T02:15:46.970Z,6.10
2017-12-25T02:16:22.366Z,5.60
2017-12-25T02:16:57.679Z,5.90
2017-12-25T02:17:32.994Z,5.60
2017-12-25T02:18:08.579Z,5.50
2017-12-25T02:18:43.494Z,5.80
2017-12-25T02:19:19.203Z,5.80
2017-12-25T02:19:54.681Z,5.40
2017-12-25T02:20:30.088Z,5.70
2017-12-25T02:21:05.374Z,5.80
2017-12-25T02:21:40.790Z,5.60
2017-12-25T02:22:16.102Z,5.80
2017-12-25T02:22:51.118Z,5.80
2017-12-25T02:23:26.221Z,5.60
2017-12-25T02:24:01.532Z,5.60
2017-12-25T02:24:36.849Z,5.40
2017-12-25T02:25:12.029Z,5.10
2017-12-25T02:25:47.349Z,5.40
2017-12-25T02:26:22.525Z,5.30
2017-12-25T02:26:58.038Z,5.40
2017-12-25T02:27:33.360Z,5.60
2017-12-25T02:28:09.253Z,5.50
2017-12-25T02:28:44.637Z,5.70
2017-12-25T02:29:19.846Z,5.40
2017-12-25T02:29:54.957Z,5.70
2017-12-25T02:30:30.144Z,5.70
2017-12-25T02:31:05.764Z,5.40
2017-12-25T02:31:41.150Z,6.10
2017-12-25T02:32:16.458Z,6.00
2017-12-25T02:32:51.877Z,5.50
2017-12-25T02:33:27.082Z,5.20
2017-12-25T02:34:02.663Z,5.40
2017-12-25T02:34:37.976Z,6.50
2017-12-25T02:35:13.272Z,6.30
2017-12-25T02:35:48.710Z,6.50
2017-12-25T02:36:24.129Z,6.30
2017-12-25T02:36:59.508Z,6.20
2017-12-25T02:37:35.127Z,6.80
2017-12-25T02:38:10.451Z,7.00
2017-12-25T02:38:45.756Z,6.70
2017-12-25T02:39:21.241Z,6.80
2017-12-25T02:39:56.352Z,6.90
2017-12-25T02:40:31.837Z,7.20
2017-12-25T02:41:07.046Z,7.00
2017-12-25T02:41:42.373Z,6.80
2017-12-25T02:42:17.641Z,7.10
2017-12-25T02:42:53.075Z,7.60
2017-12-25T02:43:28.180Z,7.20
2017-12-25T02:44:03.582Z,7.00
2017-12-25T02:44:38.820Z,7.20
2017-12-25T02:45:14.460Z,7.50
2017-12-25T02:45:50.044Z,7.10
2017-12-25T02:46:25.343Z,6.90
2017-12-25T02:47:00.746Z,6.90
2017-12-25T02:47:35.927Z,7.20
2017-12-25T02:48:11.139Z,7.10
2017-12-25T02:48:46.459Z,7.60
2017-12-25T02:49:21.664Z,7.30
2017-12-25T02:49:57.141Z,7.60
2017-12-25T02:50:32.449Z,7.50
2017-12-25T02:51:07.732Z,7.50
2017-12-25T02:51:43.046Z,8.30
2017-12-25T02:52:18.227Z,7.90
2017-12-25T02:52:53.528Z,7.50
2017-12-25T02:53:29.138Z,8.00
2017-12-25T02:54:04.443Z,7.90
2017-12-25T02:54:39.747Z,7.50
2017-12-25T02:55:15.125Z,8.00
2017-12-25T02:55:50.538Z,8.20
2017-12-25T02:56:25.816Z,8.40
2017-12-25T02:57:01.223Z,7.70
2017-12-25T02:57:36.602Z,8.00
2017-12-25T02:58:12.104Z,7.90
2017-12-25T02:58:47.512Z,8.50
2017-12-25T02:59:22.929Z,8.60
2017-12-25T02:59:58.633Z,8.80
2017-12-25T03:00:34.017Z,8.90
2017-12-25T03:01:09.421Z,8.90
2017-12-25T03:01:44.792Z,7.90
2017-12-25T03:02:20.204Z,7.50
2017-12-25T03:02:55.488Z,8.60
2017-12-25T03:03:30.987Z,8.60
2017-12-25T03:04:06.395Z,8.10
2017-12-25T03:04:41.601Z,8.20
2017-12-25T03:05:17.204Z,8.30
2017-12-25T03:05:52.681Z,8.30
2017-12-25T03:06:28.284Z,9.20
2017-12-25T03:07:04.063Z,9.30
2017-12-25T03:07:39.470Z,8.30
2017-12-25T03:08:14.547Z,9.00
2017-12-25T03:08:50.452Z,8.80
2017-12-25T03:09:26.067Z,8.30
2017-12-25T03:10:01.267Z,8.80
2017-12-25T03:10:36.481Z,8.90
2017-12-25T03:11:11.858Z,8.80
2017-12-25T03:11:47.155Z,8.70
2017-12-25T03:12:22.480Z,9.00
2017-12-25T03:12:57.937Z,8.40
2017-12-25T03:13:33.518Z,9.30
2017-12-25T03:14:08.922Z,9.40
2017-12-25T03:14:44.203Z,8.80
2017-12-25T03:15:19.329Z,8.90
2017-12-25T03:15:54.947Z,9.20
2017-12-25T03:16:30.426Z,9.60
2017-12-25T03:17:05.735Z,8.80
2017-12-25T03:17:41.809Z,9.10
2017-12-25T03:18:17.007Z,10.00
2017-12-25T03:18:52.481Z,9.20
2017-12-25T03:19:27.995Z,9.00
2017-12-25T03:20:03.370Z,9.70
2017-12-25T03:20:38.910Z,10.20
2017-12-25T03:21:14.214Z,9.80
2017-12-25T03:21:49.498Z,9.50
2017-12-25T03:22:24.993Z,9.30
2017-12-25T03:23:00.579Z,9.00
2017-12-25T03:23:35.981Z,9.50
2017-12-25T03:24:11.253Z,9.30
2017-12-25T03:24:46.669Z,9.20
2017-12-25T03:25:22.044Z,9.60
2017-12-25T03:25:57.476Z,9.20
2017-12-25T03:26:32.680Z,9.50
2017-12-25T03:27:08.161Z,9.90
2017-12-25T03:27:43.562Z,10.30
2017-12-25T03:28:18.943Z,10.30
2017-12-25T03:28:54.649Z,10.10
2017-12-25T03:29:29.823Z,9.40
2017-12-25T03:30:05.042Z,9.30
2017-12-25T03:30:41.718Z,9.80
2017-12-25T03:31:17.056Z,9.60
2017-12-25T03:31:52.259Z,9.30
2017-12-25T03:32:27.550Z,10.40
2017-12-25T03:33:03.058Z,9.70
2017-12-25T03:33:38.442Z,8.80
2017-12-25T03:34:13.750Z,9.80
2017-12-25T03:34:48.924Z,10.40
2017-12-25T03:35:24.226Z,9.90
2017-12-25T03:35:59.612Z,9.00
2017-12-25T03:36:35.043Z,8.80
2017-12-25T03:37:10.453Z,8.90
2017-12-25T03:37:45.533Z,9.40
2017-12-25T03:38:21.037Z,9.60
2017-12-25T03:38:56.331Z,9.30
2017-12-25T03:39:31.713Z,9.40
2017-12-25T03:40:06.993Z,9.60
2017-12-25T03:40:43.099Z,9.70
2017-12-25T03:41:18.279Z,9.60
2017-12-25T03:41:53.811Z,9.20
2017-12-25T03:42:29.222Z,9.20
2017-12-25T03:43:04.699Z,9.40
2017-12-25T03:43:40.003Z,9.10
2017-12-25T03:44:15.478Z,9.50
2017-12-25T03:44:50.915Z,9.40
2017-12-25T03:45:26.364Z,9.20
2017-12-25T03:46:01.462Z,9.80
2017-12-25T03:46:37.048Z,9.50
2017-12-25T03:47:12.677Z,9.90
2017-12-25T03:47:47.955Z,9.20
2017-12-25T03:48:23.267Z,9.50
2017-12-25T03:48:58.576Z,9.80
2017-12-25T03:49:33.955Z,9.70
2017-12-25T03:50:09.459Z,9.90
2017-12-25T03:50:45.136Z,10.10
2017-12-25T03:51:20.538Z,10.10
2017-12-25T03:51:55.809Z,10.00
2017-12-25T03:52:31.142Z,10.00
2017-12-25T03:53:06.523Z,10.10
2017-12-25T03:53:41.836Z,9.60
2017-12-25T03:54:17.535Z,10.00
2017-12-25T03:54:53.019Z,10.10
2017-12-25T03:55:28.431Z,10.90
2017-12-25T03:56:03.606Z,9.90
2017-12-25T03:56:39.009Z,9.80
2017-12-25T03:57:14.622Z,9.90
2017-12-25T03:57:49.862Z,10.10
2017-12-25T03:58:25.133Z,9.60
2017-12-25T03:59:00.440Z,10.20
2017-12-25T03:59:35.818Z,10.70
2017-12-25T04:00:11.514Z,10.90
2017-12-25T04:00:46.927Z,10.90
2017-12-25T04:01:22.221Z,11.10
2017-12-25T04:01:57.737Z,10.70
2017-12-25T04:02:32.922Z,11.20
2017-12-25T04:03:08.246Z,11.50
2017-12-25T04:03:43.738Z,11.00
2017-12-25T04:04:19.139Z,10.80
2017-12-25T04:04:54.513Z,11.60
2017-12-25T04:05:30.617Z,11.20
2017-12-25T04:06:06.141Z,11.50
2017-12-25T04:06:41.421Z,11.70
2017-12-25T04:07:16.623Z,12.40
2017-12-25T04:07:52.195Z,11.80
2017-12-25T04:08:27.731Z,11.60
2017-12-25T04:09:03.019Z,12.10
2017-12-25T04:09:38.324Z,12.50
2017-12-25T04:10:13.702Z,12.70
2017-12-25T04:10:50.233Z,12.30
2017-12-25T04:11:25.627Z,12.70
2017-12-25T04:12:01.113Z,11.90
2017-12-25T04:12:36.530Z,11.70
2017-12-25T04:13:11.901Z,12.30
2017-12-25T04:13:47.733Z,13.00
2017-12-25T04:14:23.023Z,12.90
2017-12-25T04:14:58.221Z,12.90
2017-12-25T04:15:33.497Z,13.10
2017-12-25T04:16:08.905Z,13.50
2017-12-25T04:16:44.315Z,12.90
2017-12-25T04:17:19.795Z,13.50
2017-12-25T04:17:55.008Z,13.10
2017-12-25T04:18:30.288Z,12.30
2017-12-25T04:19:05.511Z,13.00
2017-12-25T04:19:40.891Z,13.50
2017-12-25T04:20:16.402Z,13.40
2017-12-25T04:20:51.681Z,12.90
2017-12-25T04:21:26.988Z,12.90
2017-12-25T04:22:02.576Z,13.10
2017-12-25T04:22:37.979Z,13.80
2017-12-25T04:23:13.279Z,13.70
2017-12-25T04:23:48.655Z,13.10
2017-12-25T04:24:23.994Z,12.60
2017-12-25T04:24:59.168Z,13.10
2017-12-25T04:25:34.378Z,13.40
2017-12-25T04:26:09.560Z,13.70
2017-12-25T04:26:45.379Z,13.70
2017-12-25T04:27:20.562Z,13.80
2017-12-25T04:27:56.365Z,13.90
2017-12-25T04:28:31.865Z,13.30
2017-12-25T04:29:07.565Z,12.70
2017-12-25T04:29:43.115Z,13.10
2017-12-25T04:30:18.389Z,13.50
2017-12-25T04:30:53.395Z,14.50
2017-12-25T04:31:28.768Z,14.40
2017-12-25T04:32:03.970Z,13.90
2017-12-25T04:32:39.449Z,13.70
2017-12-25T04:33:14.759Z,13.90
2017-12-25T04:33:50.264Z,13.70
2017-12-25T04:34:25.536Z,13.60
2017-12-25T04:35:00.977Z,13.20
2017-12-25T04:35:36.358Z,12.90
2017-12-25T04:36:11.662Z,13.70
2017-12-25T04:36:46.950Z,13.60
2017-12-25T04:37:22.481Z,14.30
2017-12-25T04:37:57.655Z,13.70
2017-12-25T04:38:33.159Z,13.50
2017-12-25T04:39:08.463Z,12.90
2017-12-25T04:39:44.080Z,13.60
2017-12-25T04:40:19.303Z,14.40
2017-12-25T04:40:54.677Z,14.60
2017-12-25T04:41:29.877Z,14.60
2017-12-25T04:42:05.156Z,14.00
2017-12-25T04:42:40.760Z,13.20
2017-12-25T04:43:15.956Z,13.90
2017-12-25T04:43:51.353Z,14.30
2017-12-25T04:44:26.934Z,13.50
2017-12-25T04:45:02.139Z,13.30
2017-12-25T04:45:37.504Z,14.10
2017-12-25T04:46:12.801Z,14.00
2017-12-25T04:46:48.209Z,14.00
2017-12-25T04:47:23.591Z,14.10
2017-12-25T04:47:59.190Z,13.60
2017-12-25T04:48:34.470Z,13.40
2017-12-25T04:49:10.071Z,13.30
2017-12-25T04:49:45.441Z,13.70
2017-12-25T04:50:20.550Z,14.50
2017-12-25T04:50:55.886Z,14.50
2017-12-25T04:51:31.169Z,14.50
2017-12-25T04:52:06.479Z,14.10
2017-12-25T04:52:41.867Z,13.50
2017-12-25T04:53:17.268Z,13.30
2017-12-25T04:53:52.550Z,12.90
2017-12-25T04:54:27.863Z,13.10
2017-12-25T04:55:03.144Z,13.50
2017-12-25T04:55:38.461Z,13.40
2017-12-25T04:56:13.995Z,14.20
2017-12-25T04:56:49.281Z,13.90
2017-12-25T04:57:24.681Z,14.00
2017-12-25T04:58:00.163Z,14.20
2017-12-25T04:58:35.766Z,12.80
2017-12-25T04:59:11.249Z,13.90
2017-12-25T04:59:46.858Z,13.50
2017-12-25T05:00:22.430Z,12.70
2017-12-25T05:00:57.845Z,14.00
2017-12-25T05:01:33.552Z,13.90
2017-12-25T05:02:08.954Z,13.10
2017-12-25T05:02:44.358Z,13.40
2017-12-25T05:03:20.148Z,13.70
2017-12-25T05:03:55.344Z,13.70
2017-12-25T05:04:30.633Z,13.90
2017-12-25T05:05:06.638Z,14.30
2017-12-25T05:05:42.214Z,14.10
2017-12-25T05:06:17.520Z,14.60
2017-12-25T05:06:53.323Z,14.10
2017-12-25T05:07:28.730Z,13.20
2017-12-25T05:08:03.941Z,14.50
2017-12-25T05:08:39.317Z,14.40
2017-12-25T05:09:14.622Z,12.90
2017-12-25T05:09:49.904Z,13.30
2017-12-25T05:10:25.404Z,14.50
2017-12-25T05:11:00.783Z,14.40
2017-12-25T05:11:36.090Z,14.10
2017-12-25T05:12:11.399Z,14.10
2017-12-25T05:12:46.606Z,14.10
2017-12-25T05:13:22.109Z,14.80
2017-12-25T05:13:57.382Z,14.00
2017-12-25T05:14:32.480Z,14.20
2017-12-25T05:15:07.959Z,14.30
2017-12-25T05:15:43.480Z,13.30
2017-12-25T05:16:18.848Z,13.40
2017-12-25T05:16:54.356Z,14.70
2017-12-25T05:17:29.675Z,14.10
2017-12-25T05:18:04.976Z,13.60
2017-12-25T05:18:40.490Z,13.90
2017-12-25T05:19:15.672Z,13.80
2017-12-25T05:19:51.078Z,13.90
2017-12-25T05:20:26.278Z,14.00
2017-12-25T05:21:01.974Z,13.90
2017-12-25T05:21:37.358Z,14.50
2017-12-25T05:22:12.657Z,14.40
2017-12-25T05:22:47.877Z,13.50
2017-12-25T05:23:22.987Z,14.00
2017-12-25T05:23:58.453Z,14.40
2017-12-25T05:24:33.663Z,13.90
2017-12-25T05:25:08.968Z,13.80
2017-12-25T05:25:44.048Z,13.90
2017-12-25T05:26:19.442Z,13.30
2017-12-25T05:26:54.929Z,12.70
2017-12-25T05:27:30.232Z,13.00
2017-12-25T05:28:05.354Z,13.40
2017-12-25T05:28:40.558Z,14.40
2017-12-25T05:29:15.752Z,13.90
2017-12-25T05:29:51.045Z,12.60
2017-12-25T05:30:26.565Z,12.30
2017-12-25T05:31:01.948Z,13.40
2017-12-25T05:31:37.159Z,12.90
2017-12-25T05:32:12.631Z,12.60
2017-12-25T05:32:48.039Z,12.90
2017-12-25T05:33:23.549Z,12.50
2017-12-25T05:33:58.651Z,12.60
2017-12-25T05:34:33.931Z,12.60
2017-12-25T05:35:09.334Z,12.40
2017-12-25T05:35:44.745Z,12.70
2017-12-25T05:36:19.922Z,13.80
2017-12-25T05:36:55.431Z,13.20
2017-12-25T05:37:31.011Z,12.40
2017-12-25T05:38:06.411Z,12.10
2017-12-25T05:38:41.927Z,12.40
2017-12-25T05:39:17.145Z,12.40
2017-12-25T05:39:52.611Z,12.30
2017-12-25T05:40:27.913Z,12.70
2017-12-25T05:41:03.195Z,12.50
2017-12-25T05:41:38.703Z,12.00
2017-12-25T05:42:14.018Z,11.80
2017-12-25T05:42:49.214Z,12.30
2017-12-25T05:43:24.819Z,12.40
2017-12-25T05:43:59.926Z,11.40
2017-12-25T05:44:35.131Z,11.20
2017-12-25T05:45:10.713Z,11.90
2017-12-25T05:45:46.315Z,11.50
2017-12-25T05:46:21.592Z,11.70
2017-12-25T05:46:56.806Z,12.30
2017-12-25T05:47:32.126Z,12.40
2017-12-25T05:48:07.206Z,11.50
2017-12-25T05:48:42.510Z,11.30
2017-12-25T05:49:17.833Z,11.70
2017-12-25T05:49:53.043Z,12.20
2017-12-25T05:50:28.228Z,12.20
2017-12-25T05:51:03.628Z,11.80
2017-12-25T05:51:39.018Z,11.70
2017-12-25T05:52:14.322Z,11.40
2017-12-25T05:52:49.600Z,11.90
2017-12-25T05:53:25.101Z,11.80
2017-12-25T05:54:00.107Z,11.90
2017-12-25T05:54:35.520Z,11.80
2017-12-25T05:55:10.619Z,12.40
2017-12-25T05:55:45.899Z,12.00
2017-12-25T05:56:21.203Z,11.50
2017-12-25T05:56:56.688Z,12.00
2017-12-25T05:57:31.903Z,13.30
2017-12-25T05:58:07.071Z,12.60
2017-12-25T05:58:42.390Z,12.90
2017-12-25T05:59:17.791Z,13.10
2017-12-25T05:59:53.494Z,12.70
2017-12-25T06:00:28.806Z,12.40
2017-12-25T06:01:04.288Z,12.60
2017-12-25T06:01:39.404Z,13.20
2017-12-25T06:02:14.684Z,13.10
2017-12-25T06:02:50.399Z,13.20
2017-12-25T06:03:25.681Z,13.30
2017-12-25T06:04:01.180Z,12.70
2017-12-25T06:04:36.513Z,12.70
2017-12-25T06:05:12.133Z,13.30
2017-12-25T06:05:47.340Z,13.70
2017-12-25T06:06:22.625Z,13.40
2017-12-25T06:06:57.728Z,14.20
2017-12-25T06:07:33.303Z,14.60
2017-12-25T06:08:08.717Z,14.00
2017-12-25T06:08:43.897Z,13.10
2017-12-25T06:09:19.309Z,13.20
2017-12-25T06:09:54.521Z,13.50
2017-12-25T06:10:29.835Z,13.30
2017-12-25T06:11:05.036Z,13.50
2017-12-25T06:11:41.020Z,13.60
2017-12-25T06:12:16.532Z,13.80
2017-12-25T06:12:52.002Z,14.50
2017-12-25T06:13:27.610Z,14.40
2017-12-25T06:14:03.192Z,14.30
2017-12-25T06:14:38.800Z,14.00
2017-12-25T06:15:14.080Z,13.80
2017-12-25T06:15:49.425Z,13.80
2017-12-25T06:16:24.931Z,14.10
2017-12-25T06:17:00.211Z,13.20
2017-12-25T06:17:35.613Z,13.20
2017-12-25T06:18:11.100Z,13.80
2017-12-25T06:18:46.711Z,13.60
2017-12-25T06:19:21.891Z,13.60
2017-12-25T06:19:57.495Z,13.30
2017-12-25T06:20:32.771Z,13.30
2017-12-25T06:21:08.315Z,12.80
2017-12-25T06:21:43.735Z,12.70
2017-12-25T06:22:19.220Z,12.00
2017-12-25T06:22:54.426Z,12.30
2017-12-25T06:23:29.814Z,13.10
2017-12-25T06:24:05.124Z,13.00
2017-12-25T06:24:40.610Z,13.00
2017-12-25T06:25:15.905Z,12.90
2017-12-25T06:25:52.378Z,12.80
2017-12-25T06:26:27.920Z,13.60
2017-12-25T06:27:03.227Z,13.70
2017-12-25T06:27:38.506Z,12.90
2017-12-25T06:28:13.800Z,13.10
2017-12-25T06:28:49.084Z,13.30
2017-12-25T06:29:24.781Z,13.10
2017-12-25T06:29:59.959Z,12.90
2017-12-25T06:30:35.156Z,12.90
2017-12-25T06:31:10.534Z,13.00
2017-12-25T06:31:45.768Z,13.00
2017-12-25T06:32:21.075Z,13.00
2017-12-25T06:32:56.554Z,12.70
2017-12-25T06:33:31.760Z,12.80
2017-12-25T06:34:07.241Z,12.10
2017-12-25T06:34:42.846Z,12.00
2017-12-25T06:35:18.021Z,12.20
2017-12-25T06:35:53.226Z,12.70
2017-12-25T06:36:28.496Z,12.10
2017-12-25T06:37:03.822Z,11.80
2017-12-25T06:37:39.154Z,11.40
2017-12-25T06:38:14.460Z,11.40
2017-12-25T06:38:49.862Z,11.50
2017-12-25T06:39:25.050Z,11.30
2017-12-25T06:40:00.251Z,11.20
2017-12-25T06:40:35.631Z,11.10
2017-12-25T06:41:10.930Z,11.00
2017-12-25T06:41:46.313Z,11.00
2017-12-25T06:42:21.949Z,11.10
2017-12-25T06:42:57.131Z,11.30
2017-12-25T06:43:32.333Z,10.60
2017-12-25T06:44:07.436Z,10.00
2017-12-25T06:44:42.613Z,10.20
2017-12-25T06:45:18.019Z,10.10
2017-12-25T06:45:53.205Z,10.00
2017-12-25T06:46:28.205Z,10.40
2017-12-25T06:47:03.477Z,9.70
2017-12-25T06:47:39.011Z,9.40
2017-12-25T06:48:14.308Z,10.20
2017-12-25T06:48:49.606Z,10.40
2017-12-25T06:49:24.810Z,10.50
2017-12-25T06:49:59.987Z,10.00
2017-12-25T06:50:35.394Z,9.90
2017-12-25T06:51:10.879Z,9.60
2017-12-25T06:51:46.473Z,9.30
2017-12-25T06:52:21.660Z,8.90
2017-12-25T06:52:56.994Z,9.20
2017-12-25T06:53:32.370Z,9.50
2017-12-25T06:54:07.882Z,9.40
2017-12-25T06:54:43.267Z,9.10
2017-12-25T06:55:18.866Z,9.20
2017-12-25T06:55:54.281Z,9.00
2017-12-25T06:56:29.461Z,9.50
2017-12-25T06:57:04.762Z,8.90
2017-12-25T06:57:39.849Z,8.90
2017-12-25T06:58:15.579Z,8.80
2017-12-25T06:58:50.551Z,9.20
2017-12-25T06:59:25.863Z,8.80
2017-12-25T07:00:01.645Z,8.60
2017-12-25T07:00:37.569Z,9.00
2017-12-25T07:01:12.847Z,9.60
2017-12-25T07:01:47.946Z,9.10
2017-12-25T07:02:23.347Z,9.60
2017-12-25T07:02:58.827Z,9.60
2017-12-25T07:03:34.358Z,9.40
2017-12-25T07:04:09.835Z,9.60
2017-12-25T07:04:45.234Z,9.60
2017-12-25T07:05:20.213Z,10.70
2017-12-25T07:05:55.414Z,9.80
2017-12-25T07:06:30.792Z,9.50
2017-12-25T07:07:08.987Z,10.20
2017-12-25T07:07:44.298Z,9.70
2017-12-25T07:08:19.475Z,10.00
2017-12-25T07:08:54.900Z,10.40
2017-12-25T07:09:30.095Z,10.50
2017-12-25T07:10:05.599Z,10.60
2017-12-25T07:10:40.982Z,10.90
2017-12-25T07:11:16.386Z,11.50
2017-12-25T07:11:51.768Z,11.60
2017-12-25T07:12:27.506Z,11.40
2017-12-25T07:13:02.797Z,11.20
2017-12-25T07:13:38.161Z,11.20
2017-12-25T07:14:13.395Z,11.30
2017-12-25T07:14:48.887Z,11.50
2017-12-25T07:15:24.293Z,11.00
2017-12-25T07:15:59.675Z,10.80
2017-12-25T07:16:34.980Z,10.90
2017-12-25T07:17:10.263Z,11.20
2017-12-25T07:17:45.662Z,11.30
2017-12-25T07:18:20.869Z,11.10
2017-12-25T07:18:56.204Z,10.80
2017-12-25T07:19:31.491Z,10.70
2017-12-25T07:20:06.660Z,10.80
2017-12-25T07:20:43.354Z,10.60
2017-12-25T07:21:18.635Z,10.30
2017-12-25T07:21:54.233Z,10.30
2017-12-25T07:22:29.517Z,10.20
2017-12-25T07:23:05.024Z,11.00
2017-12-25T07:23:40.339Z,10.80
2017-12-25T07:24:15.628Z,10.30
2017-12-25T07:24:51.055Z,10.90
2017-12-25T07:25:26.737Z,11.60
2017-12-25T07:26:01.932Z,10.50
2017-12-25T07:26:37.013Z,10.30
2017-12-25T07:27:12.310Z,10.30
2017-12-25T07:27:47.591Z,9.70
2017-12-25T07:28:22.948Z,10.30
2017-12-25T07:28:58.579Z,11.00
2017-12-25T07:29:33.689Z,10.90
2017-12-25T07:30:08.923Z,10.90
2017-12-25T07:30:44.103Z,11.10
2017-12-25T07:31:19.306Z,10.80
2017-12-25T07:31:54.487Z,10.70
2017-12-25T07:32:29.688Z,10.30
2017-12-25T07:33:04.869Z,10.50
2017-12-25T07:33:40.277Z,10.40
2017-12-25T07:34:15.450Z,10.40
2017-12-25T07:34:50.752Z,10.30
2017-12-25T07:35:26.587Z,10.40
2017-12-25T07:36:01.894Z,10.50
2017-12-25T07:36:37.165Z,10.10
2017-12-25T07:37:12.445Z,10.20
2017-12-25T07:37:48.046Z,10.10
2017-12-25T07:38:23.216Z,11.10
2017-12-25T07:38:58.518Z,10.90
2017-12-25T07:39:33.797Z,10.40
2017-12-25T07:40:09.096Z,10.70
2017-12-25T07:40:44.302Z,10.10
2017-12-25T07:41:19.701Z,10.10
2017-12-25T07:41:55.214Z,9.80
2017-12-25T07:42:30.591Z,10.30
2017-12-25T07:43:05.710Z,10.70